sensor_id;sensor_type;location;lat;lon;timestamp;temperature;humidity
212;DHT22;16228;48.800;9.002;2023-07-13T00:00:49;17.90;96.90
212;DHT22;16228;48.800;9.002;2023-07-13T00:03:16;17.90;96.90
212;DHT22;16228;48.800;9.002;2023-07-13T00:05:43;17.90;96.90
212;DHT22;16228;48.800;9.002;2023-07-13T00:08:10;17.80;96.90
212;DHT22;16228;48.800;9.002;2023-07-13T00:10:41;17.80;96.90
212;DHT22;16228;48.800;9.002;2023-07-13T00:13:09;17.70;96.90
212;DHT22;16228;48.800;9.002;2023-07-13T00:15:36;17.70;96.90
212;DHT22;16228;48.800;9.002;2023-07-13T00:18:05;17.60;96.90
212;DHT22;16228;48.800;9.002;2023-07-13T00:20:32;17.50;96.90
212;DHT22;16228;48.800;9.002;2023-07-13T00:22:59;17.40;96.90
212;DHT22;16228;48.800;9.002;2023-07-13T00:25:26;17.40;96.90
212;DHT22;16228;48.800;9.002;2023-07-13T00:27:54;17.30;96.90
212;DHT22;16228;48.800;9.002;2023-07-13T00:30:21;17.30;96.90
212;DHT22;16228;48.800;9.002;2023-07-13T00:32:48;17.20;96.90
212;DHT22;16228;48.800;9.002;2023-07-13T00:35:17;17.20;96.90
212;DHT22;16228;48.800;9.002;2023-07-13T00:37:44;17.10;96.90
212;DHT22;16228;48.800;9.002;2023-07-13T00:40:12;17.10;96.90
212;DHT22;16228;48.800;9.002;2023-07-13T00:42:40;17.10;96.90
212;DHT22;16228;48.800;9.002;2023-07-13T00:48:21;17.30;96.90
212;DHT22;16228;48.800;9.002;2023-07-13T00:50:51;17.40;96.90
212;DHT22;16228;48.800;9.002;2023-07-13T00:53:19;17.50;96.90
212;DHT22;16228;48.800;9.002;2023-07-13T00:55:47;17.60;96.90
212;DHT22;16228;48.800;9.002;2023-07-13T00:58:15;17.70;96.90
212;DHT22;16228;48.800;9.002;2023-07-13T01:00:42;17.80;96.90
212;DHT22;16228;48.800;9.002;2023-07-13T01:03:09;17.90;96.90
212;DHT22;16228;48.800;9.002;2023-07-13T01:05:38;17.90;96.90
212;DHT22;16228;48.800;9.002;2023-07-13T01:08:05;18.00;96.90
212;DHT22;16228;48.800;9.002;2023-07-13T01:10:32;18.00;96.90
212;DHT22;16228;48.800;9.002;2023-07-13T01:13:05;18.10;96.90
212;DHT22;16228;48.800;9.002;2023-07-13T01:15:40;18.10;96.90
212;DHT22;16228;48.800;9.002;2023-07-13T01:18:10;18.00;96.90
212;DHT22;16228;48.800;9.002;2023-07-13T01:20:39;17.90;96.90
212;DHT22;16228;48.800;9.002;2023-07-13T01:23:09;17.90;96.90
212;DHT22;16228;48.800;9.002;2023-07-13T01:25:37;17.80;96.90
212;DHT22;16228;48.800;9.002;2023-07-13T01:28:06;17.80;96.90
212;DHT22;16228;48.800;9.002;2023-07-13T01:30:34;17.70;96.90
212;DHT22;16228;48.800;9.002;2023-07-13T01:33:01;17.60;96.90
212;DHT22;16228;48.800;9.002;2023-07-13T01:35:29;17.60;96.90
212;DHT22;16228;48.800;9.002;2023-07-13T01:37:56;17.40;96.90
212;DHT22;16228;48.800;9.002;2023-07-13T01:40:24;17.40;96.90
212;DHT22;16228;48.800;9.002;2023-07-13T01:42:51;17.30;96.90
212;DHT22;16228;48.800;9.002;2023-07-13T01:45:18;17.30;96.90
212;DHT22;16228;48.800;9.002;2023-07-13T01:47:45;17.20;96.90
212;DHT22;16228;48.800;9.002;2023-07-13T01:50:12;17.20;96.90
212;DHT22;16228;48.800;9.002;2023-07-13T01:52:39;17.20;96.90
212;DHT22;16228;48.800;9.002;2023-07-13T01:55:07;17.20;96.90
212;DHT22;16228;48.800;9.002;2023-07-13T01:57:36;17.10;96.90
212;DHT22;16228;48.800;9.002;2023-07-13T02:00:04;17.00;96.90
212;DHT22;16228;48.800;9.002;2023-07-13T02:02:32;17.00;96.90
212;DHT22;16228;48.800;9.002;2023-07-13T02:04:59;16.90;96.90
212;DHT22;16228;48.800;9.002;2023-07-13T02:07:25;16.80;96.90
212;DHT22;16228;48.800;9.002;2023-07-13T02:09:53;16.80;96.90
212;DHT22;16228;48.800;9.002;2023-07-13T02:12:20;16.70;96.90
212;DHT22;16228;48.800;9.002;2023-07-13T02:14:48;16.60;96.90
212;DHT22;16228;48.800;9.002;2023-07-13T02:17:15;16.60;96.90
212;DHT22;16228;48.800;9.002;2023-07-13T02:19:42;16.60;96.90
212;DHT22;16228;48.800;9.002;2023-07-13T02:22:09;16.50;96.90
212;DHT22;16228;48.800;9.002;2023-07-13T02:24:36;16.50;96.90
212;DHT22;16228;48.800;9.002;2023-07-13T02:27:04;16.40;96.90
212;DHT22;16228;48.800;9.002;2023-07-13T02:29:31;16.30;96.90
212;DHT22;16228;48.800;9.002;2023-07-13T02:31:59;16.30;96.90
212;DHT22;16228;48.800;9.002;2023-07-13T02:34:26;16.20;96.90
212;DHT22;16228;48.800;9.002;2023-07-13T02:36:53;16.20;96.90
212;DHT22;16228;48.800;9.002;2023-07-13T02:39:20;16.20;96.90
212;DHT22;16228;48.800;9.002;2023-07-13T02:41:47;16.10;96.90
212;DHT22;16228;48.800;9.002;2023-07-13T02:44:15;16.10;96.90
212;DHT22;16228;48.800;9.002;2023-07-13T02:46:42;16.00;96.90
212;DHT22;16228;48.800;9.002;2023-07-13T02:49:10;15.90;96.90
212;DHT22;16228;48.800;9.002;2023-07-13T02:51:37;15.90;96.90
212;DHT22;16228;48.800;9.002;2023-07-13T02:54:04;15.90;96.90
212;DHT22;16228;48.800;9.002;2023-07-13T02:56:34;15.90;96.90
212;DHT22;16228;48.800;9.002;2023-07-13T02:59:01;15.80;96.90
212;DHT22;16228;48.800;9.002;2023-07-13T03:01:28;15.70;96.90
212;DHT22;16228;48.800;9.002;2023-07-13T03:03:55;15.70;96.90
212;DHT22;16228;48.800;9.002;2023-07-13T03:06:23;15.60;96.90
212;DHT22;16228;48.800;9.002;2023-07-13T03:08:50;15.60;96.90
212;DHT22;16228;48.800;9.002;2023-07-13T03:11:19;15.60;96.90
212;DHT22;16228;48.800;9.002;2023-07-13T03:13:46;15.60;96.90
212;DHT22;16228;48.800;9.002;2023-07-13T03:16:14;15.50;96.90
212;DHT22;16228;48.800;9.002;2023-07-13T03:18:42;15.60;96.90
212;DHT22;16228;48.800;9.002;2023-07-13T03:21:10;15.50;96.90
212;DHT22;16228;48.800;9.002;2023-07-13T03:23:38;15.50;96.90
212;DHT22;16228;48.800;9.002;2023-07-13T03:26:07;15.50;96.90
212;DHT22;16228;48.800;9.002;2023-07-13T03:28:35;15.50;96.90
212;DHT22;16228;48.800;9.002;2023-07-13T03:31:04;15.50;96.90
212;DHT22;16228;48.800;9.002;2023-07-13T03:33:31;15.60;96.90
212;DHT22;16228;48.800;9.002;2023-07-13T03:35:59;15.60;96.90
212;DHT22;16228;48.800;9.002;2023-07-13T03:38:26;15.60;96.90
212;DHT22;16228;48.800;9.002;2023-07-13T03:40:54;15.60;96.90
212;DHT22;16228;48.800;9.002;2023-07-13T03:43:21;15.60;96.90
212;DHT22;16228;48.800;9.002;2023-07-13T03:45:48;15.60;96.90
212;DHT22;16228;48.800;9.002;2023-07-13T03:48:15;15.60;96.90
212;DHT22;16228;48.800;9.002;2023-07-13T03:50:42;15.60;96.90
212;DHT22;16228;48.800;9.002;2023-07-13T03:53:09;15.60;96.90
212;DHT22;16228;48.800;9.002;2023-07-13T03:55:36;15.70;96.90
212;DHT22;16228;48.800;9.002;2023-07-13T03:58:29;15.70;96.90
212;DHT22;16228;48.800;9.002;2023-07-13T04:00:57;15.80;96.90
212;DHT22;16228;48.800;9.002;2023-07-13T04:03:25;15.90;96.90
212;DHT22;16228;48.800;9.002;2023-07-13T04:05:55;15.90;96.90
212;DHT22;16228;48.800;9.002;2023-07-13T04:08:26;16.00;96.90
212;DHT22;16228;48.800;9.002;2023-07-13T04:10:53;16.00;96.90
212;DHT22;16228;48.800;9.002;2023-07-13T04:13:21;16.10;96.90
212;DHT22;16228;48.800;9.002;2023-07-13T04:15:49;16.10;96.90
212;DHT22;16228;48.800;9.002;2023-07-13T04:18:17;16.10;96.90
212;DHT22;16228;48.800;9.002;2023-07-13T04:20:44;16.10;96.90
212;DHT22;16228;48.800;9.002;2023-07-13T04:23:11;16.10;96.90
212;DHT22;16228;48.800;9.002;2023-07-13T04:25:37;16.00;96.90
212;DHT22;16228;48.800;9.002;2023-07-13T04:28:05;16.00;96.90
212;DHT22;16228;48.800;9.002;2023-07-13T04:30:32;15.90;96.90
212;DHT22;16228;48.800;9.002;2023-07-13T04:33:01;15.80;96.90
212;DHT22;16228;48.800;9.002;2023-07-13T04:35:28;15.80;96.90
212;DHT22;16228;48.800;9.002;2023-07-13T04:37:55;15.70;96.90
212;DHT22;16228;48.800;9.002;2023-07-13T04:40:22;15.70;96.90
212;DHT22;16228;48.800;9.002;2023-07-13T04:42:49;15.60;96.90
212;DHT22;16228;48.800;9.002;2023-07-13T04:45:16;15.60;96.90
212;DHT22;16228;48.800;9.002;2023-07-13T04:47:45;15.50;96.90
212;DHT22;16228;48.800;9.002;2023-07-13T04:50:14;15.50;96.90
212;DHT22;16228;48.800;9.002;2023-07-13T04:52:45;15.40;96.90
212;DHT22;16228;48.800;9.002;2023-07-13T04:55:12;15.40;96.90
212;DHT22;16228;48.800;9.002;2023-07-13T04:57:39;15.40;96.90
212;DHT22;16228;48.800;9.002;2023-07-13T05:00:07;15.50;96.90
212;DHT22;16228;48.800;9.002;2023-07-13T05:02:37;15.50;96.90
212;DHT22;16228;48.800;9.002;2023-07-13T05:05:05;15.50;96.90
212;DHT22;16228;48.800;9.002;2023-07-13T05:07:33;15.60;96.90
212;DHT22;16228;48.800;9.002;2023-07-13T05:10:00;15.70;96.90
212;DHT22;16228;48.800;9.002;2023-07-13T05:12:27;15.90;96.90
212;DHT22;16228;48.800;9.002;2023-07-13T05:14:54;16.10;96.90
212;DHT22;16228;48.800;9.002;2023-07-13T05:17:21;16.20;96.90
212;DHT22;16228;48.800;9.002;2023-07-13T05:19:48;16.40;96.90
212;DHT22;16228;48.800;9.002;2023-07-13T05:22:15;16.60;96.90
212;DHT22;16228;48.800;9.002;2023-07-13T05:24:44;16.80;96.90
212;DHT22;16228;48.800;9.002;2023-07-13T05:27:11;16.90;96.90
212;DHT22;16228;48.800;9.002;2023-07-13T05:29:37;17.10;96.90
212;DHT22;16228;48.800;9.002;2023-07-13T05:32:05;17.20;96.90
212;DHT22;16228;48.800;9.002;2023-07-13T05:34:32;17.20;96.90
212;DHT22;16228;48.800;9.002;2023-07-13T05:36:59;17.30;96.90
212;DHT22;16228;48.800;9.002;2023-07-13T05:39:26;17.40;96.90
212;DHT22;16228;48.800;9.002;2023-07-13T05:41:54;17.50;96.90
212;DHT22;16228;48.800;9.002;2023-07-13T05:44:21;17.60;96.90
212;DHT22;16228;48.800;9.002;2023-07-13T05:46:48;17.70;96.90
212;DHT22;16228;48.800;9.002;2023-07-13T05:49:15;17.80;96.90
212;DHT22;16228;48.800;9.002;2023-07-13T05:51:42;17.80;96.90
212;DHT22;16228;48.800;9.002;2023-07-13T05:54:09;17.90;96.90
212;DHT22;16228;48.800;9.002;2023-07-13T05:56:36;18.00;96.90
212;DHT22;16228;48.800;9.002;2023-07-13T05:59:05;18.10;96.90
212;DHT22;16228;48.800;9.002;2023-07-13T06:01:31;18.30;96.90
212;DHT22;16228;48.800;9.002;2023-07-13T06:03:58;18.40;96.90
212;DHT22;16228;48.800;9.002;2023-07-13T06:06:26;18.60;96.90
212;DHT22;16228;48.800;9.002;2023-07-13T06:08:53;18.80;96.90
212;DHT22;16228;48.800;9.002;2023-07-13T06:11:21;19.00;96.90
212;DHT22;16228;48.800;9.002;2023-07-13T06:13:49;19.10;96.90
212;DHT22;16228;48.800;9.002;2023-07-13T06:16:18;19.10;96.90
212;DHT22;16228;48.800;9.002;2023-07-13T06:18:45;19.10;96.90
212;DHT22;16228;48.800;9.002;2023-07-13T06:21:14;19.20;96.90
212;DHT22;16228;48.800;9.002;2023-07-13T06:23:42;19.30;96.90
212;DHT22;16228;48.800;9.002;2023-07-13T06:26:10;19.20;96.90
212;DHT22;16228;48.800;9.002;2023-07-13T06:28:38;19.20;96.90
212;DHT22;16228;48.800;9.002;2023-07-13T06:31:06;19.30;96.90
212;DHT22;16228;48.800;9.002;2023-07-13T06:33:34;19.40;96.90
212;DHT22;16228;48.800;9.002;2023-07-13T06:36:03;19.70;96.90
212;DHT22;16228;48.800;9.002;2023-07-13T06:38:30;20.20;96.90
212;DHT22;16228;48.800;9.002;2023-07-13T06:40:57;20.70;96.90
212;DHT22;16228;48.800;9.002;2023-07-13T06:43:25;21.10;96.90
212;DHT22;16228;48.800;9.002;2023-07-13T06:45:54;21.40;95.40
212;DHT22;16228;48.800;9.002;2023-07-13T06:48:22;21.70;94.40
212;DHT22;16228;48.800;9.002;2023-07-13T06:50:51;21.90;92.60
212;DHT22;16228;48.800;9.002;2023-07-13T06:53:19;22.00;95.00
212;DHT22;16228;48.800;9.002;2023-07-13T06:55:47;22.20;95.60
212;DHT22;16228;48.800;9.002;2023-07-13T06:58:15;22.40;95.90
212;DHT22;16228;48.800;9.002;2023-07-13T07:00:42;22.80;94.50
212;DHT22;16228;48.800;9.002;2023-07-13T07:03:09;23.20;91.90
212;DHT22;16228;48.800;9.002;2023-07-13T07:05:36;23.80;88.60
212;DHT22;16228;48.800;9.002;2023-07-13T07:08:04;24.90;85.40
212;DHT22;16228;48.800;9.002;2023-07-13T07:10:31;26.30;80.40
212;DHT22;16228;48.800;9.002;2023-07-13T07:12:59;27.50;77.50
212;DHT22;16228;48.800;9.002;2023-07-13T07:15:25;28.40;75.10
212;DHT22;16228;48.800;9.002;2023-07-13T07:17:52;29.00;76.10
212;DHT22;16228;48.800;9.002;2023-07-13T07:20:19;29.70;73.90
212;DHT22;16228;48.800;9.002;2023-07-13T07:22:47;30.20;72.70
212;DHT22;16228;48.800;9.002;2023-07-13T07:25:15;30.70;68.60
212;DHT22;16228;48.800;9.002;2023-07-13T07:27:43;30.80;67.40
212;DHT22;16228;48.800;9.002;2023-07-13T07:30:10;30.70;67.20
212;DHT22;16228;48.800;9.002;2023-07-13T07:32:38;30.80;66.00
212;DHT22;16228;48.800;9.002;2023-07-13T07:35:05;30.60;65.10
212;DHT22;16228;48.800;9.002;2023-07-13T07:37:32;30.60;69.90
212;DHT22;16228;48.800;9.002;2023-07-13T07:39:59;30.80;66.30
212;DHT22;16228;48.800;9.002;2023-07-13T07:42:28;31.10;66.70
212;DHT22;16228;48.800;9.002;2023-07-13T07:44:55;31.30;68.70
212;DHT22;16228;48.800;9.002;2023-07-13T07:47:22;31.70;65.60
212;DHT22;16228;48.800;9.002;2023-07-13T07:49:49;32.00;65.80
212;DHT22;16228;48.800;9.002;2023-07-13T07:52:16;32.50;67.70
212;DHT22;16228;48.800;9.002;2023-07-13T07:54:43;33.10;68.70
212;DHT22;16228;48.800;9.002;2023-07-13T07:57:10;33.40;62.30
212;DHT22;16228;48.800;9.002;2023-07-13T07:59:39;33.70;62.80
212;DHT22;16228;48.800;9.002;2023-07-13T08:02:08;33.40;63.60
212;DHT22;16228;48.800;9.002;2023-07-13T08:04:35;33.10;62.50
212;DHT22;16228;48.800;9.002;2023-07-13T08:07:02;33.20;62.90
212;DHT22;16228;48.800;9.002;2023-07-13T08:09:29;33.40;62.40
212;DHT22;16228;48.800;9.002;2023-07-13T08:11:56;33.50;61.00
212;DHT22;16228;48.800;9.002;2023-07-13T08:14:23;33.90;61.50
212;DHT22;16228;48.800;9.002;2023-07-13T08:16:51;33.90;62.10
212;DHT22;16228;48.800;9.002;2023-07-13T08:19:19;34.10;61.20
212;DHT22;16228;48.800;9.002;2023-07-13T08:21:46;34.40;60.20
212;DHT22;16228;48.800;9.002;2023-07-13T08:24:14;34.90;60.00
212;DHT22;16228;48.800;9.002;2023-07-13T08:26:44;35.20;59.60
212;DHT22;16228;48.800;9.002;2023-07-13T08:29:11;35.20;57.40
212;DHT22;16228;48.800;9.002;2023-07-13T08:31:38;35.50;55.00
212;DHT22;16228;48.800;9.002;2023-07-13T08:34:07;35.10;55.90
212;DHT22;16228;48.800;9.002;2023-07-13T08:36:34;35.20;56.60
212;DHT22;16228;48.800;9.002;2023-07-13T08:39:00;35.20;60.90
212;DHT22;16228;48.800;9.002;2023-07-13T08:41:28;35.50;60.40
212;DHT22;16228;48.800;9.002;2023-07-13T08:43:57;36.00;58.00
212;DHT22;16228;48.800;9.002;2023-07-13T08:46:28;35.90;55.90
212;DHT22;16228;48.800;9.002;2023-07-13T08:49:03;35.90;54.60
212;DHT22;16228;48.800;9.002;2023-07-13T08:51:39;35.20;58.70
212;DHT22;16228;48.800;9.002;2023-07-13T08:54:16;34.10;57.70
212;DHT22;16228;48.800;9.002;2023-07-13T08:56:45;33.70;57.70
212;DHT22;16228;48.800;9.002;2023-07-13T08:59:15;34.20;62.50
212;DHT22;16228;48.800;9.002;2023-07-13T09:04:37;35.60;61.50
212;DHT22;16228;48.800;9.002;2023-07-13T09:07:16;36.40;54.70
212;DHT22;16228;48.800;9.002;2023-07-13T09:09:55;36.40;56.20
212;DHT22;16228;48.800;9.002;2023-07-13T09:12:30;35.10;58.00
212;DHT22;16228;48.800;9.002;2023-07-13T09:14:59;33.20;58.10
212;DHT22;16228;48.800;9.002;2023-07-13T09:17:36;31.90;60.40
212;DHT22;16228;48.800;9.002;2023-07-13T09:20:12;30.90;63.60
212;DHT22;16228;48.800;9.002;2023-07-13T09:22:46;29.90;64.40
212;DHT22;16228;48.800;9.002;2023-07-13T09:25:23;29.30;64.70
212;DHT22;16228;48.800;9.002;2023-07-13T09:27:54;29.80;69.90
212;DHT22;16228;48.800;9.002;2023-07-13T09:30:31;30.80;65.50
212;DHT22;16228;48.800;9.002;2023-07-13T09:33:00;32.20;61.40
212;DHT22;16228;48.800;9.002;2023-07-13T09:35:29;33.10;60.60
212;DHT22;16228;48.800;9.002;2023-07-13T09:38:10;33.60;63.00
212;DHT22;16228;48.800;9.002;2023-07-13T09:40:53;34.30;62.80
212;DHT22;16228;48.800;9.002;2023-07-13T09:43:25;35.00;58.50
212;DHT22;16228;48.800;9.002;2023-07-13T09:45:55;34.20;58.00
212;DHT22;16228;48.800;9.002;2023-07-13T09:48:22;34.70;61.70
212;DHT22;16228;48.800;9.002;2023-07-13T09:50:54;35.70;56.80
212;DHT22;16228;48.800;9.002;2023-07-13T09:53:23;36.80;55.50
212;DHT22;16228;48.800;9.002;2023-07-13T09:55:50;37.60;53.50
212;DHT22;16228;48.800;9.002;2023-07-13T09:58:18;38.40;54.80
212;DHT22;16228;48.800;9.002;2023-07-13T10:00:55;38.70;51.20
212;DHT22;16228;48.800;9.002;2023-07-13T10:03:26;38.30;55.00
212;DHT22;16228;48.800;9.002;2023-07-13T10:05:53;37.70;54.40
212;DHT22;16228;48.800;9.002;2023-07-13T10:08:25;37.40;54.40
212;DHT22;16228;48.800;9.002;2023-07-13T10:10:57;36.70;52.20
212;DHT22;16228;48.800;9.002;2023-07-13T10:13:36;36.60;53.70
212;DHT22;16228;48.800;9.002;2023-07-13T10:16:04;36.10;54.70
212;DHT22;16228;48.800;9.002;2023-07-13T10:18:39;35.00;56.10
212;DHT22;16228;48.800;9.002;2023-07-13T10:21:15;33.70;57.80
212;DHT22;16228;48.800;9.002;2023-07-13T10:23:55;32.70;64.10
212;DHT22;16228;48.800;9.002;2023-07-13T10:26:27;32.50;59.10
212;DHT22;16228;48.800;9.002;2023-07-13T10:29:00;32.40;59.00
212;DHT22;16228;48.800;9.002;2023-07-13T10:31:30;31.80;65.50
212;DHT22;16228;48.800;9.002;2023-07-13T10:33:58;31.20;61.60
212;DHT22;16228;48.800;9.002;2023-07-13T10:36:33;31.40;60.90
212;DHT22;16228;48.800;9.002;2023-07-13T10:39:04;31.80;60.20
212;DHT22;16228;48.800;9.002;2023-07-13T10:41:35;32.50;58.00
212;DHT22;16228;48.800;9.002;2023-07-13T10:44:05;32.80;60.10
212;DHT22;16228;48.800;9.002;2023-07-13T10:46:38;33.00;60.70
212;DHT22;16228;48.800;9.002;2023-07-13T10:49:07;32.70;61.20
212;DHT22;16228;48.800;9.002;2023-07-13T10:51:36;32.10;65.50
212;DHT22;16228;48.800;9.002;2023-07-13T10:54:19;31.80;63.70
212;DHT22;16228;48.800;9.002;2023-07-13T10:56:51;31.80;63.10
212;DHT22;16228;48.800;9.002;2023-07-13T10:59:25;32.10;63.80
212;DHT22;16228;48.800;9.002;2023-07-13T11:01:56;31.90;63.10
212;DHT22;16228;48.800;9.002;2023-07-13T11:04:26;31.00;63.50
212;DHT22;16228;48.800;9.002;2023-07-13T11:06:58;30.10;68.20
212;DHT22;16228;48.800;9.002;2023-07-13T11:09:36;29.30;66.20
212;DHT22;16228;48.800;9.002;2023-07-13T11:15:12;27.90;71.20
212;DHT22;16228;48.800;9.002;2023-07-13T11:17:49;27.30;72.80
212;DHT22;16228;48.800;9.002;2023-07-13T11:20:33;27.10;72.10
212;DHT22;16228;48.800;9.002;2023-07-13T11:23:18;28.50;71.80
212;DHT22;16228;48.800;9.002;2023-07-13T11:25:47;31.00;68.70
212;DHT22;16228;48.800;9.002;2023-07-13T11:28:22;32.10;64.80
212;DHT22;16228;48.800;9.002;2023-07-13T11:31:03;32.10;67.10
212;DHT22;16228;48.800;9.002;2023-07-13T11:33:56;32.30;67.70
212;DHT22;16228;48.800;9.002;2023-07-13T11:36:30;33.50;57.50
212;DHT22;16228;48.800;9.002;2023-07-13T11:39:02;33.40;63.70
212;DHT22;16228;48.800;9.002;2023-07-13T11:41:35;33.40;63.50
212;DHT22;16228;48.800;9.002;2023-07-13T11:44:12;33.70;57.50
212;DHT22;16228;48.800;9.002;2023-07-13T11:46:43;34.70;56.10
212;DHT22;16228;48.800;9.002;2023-07-13T11:49:15;35.90;59.30
212;DHT22;16228;48.800;9.002;2023-07-13T11:51:43;37.20;56.40
212;DHT22;16228;48.800;9.002;2023-07-13T11:54:20;37.50;52.80
212;DHT22;16228;48.800;9.002;2023-07-13T11:56:49;37.80;53.00
212;DHT22;16228;48.800;9.002;2023-07-13T11:59:18;38.10;52.20
212;DHT22;16228;48.800;9.002;2023-07-13T12:01:49;38.20;53.40
212;DHT22;16228;48.800;9.002;2023-07-13T12:04:22;38.70;53.40
212;DHT22;16228;48.800;9.002;2023-07-13T12:06:56;38.50;50.30
212;DHT22;16228;48.800;9.002;2023-07-13T12:09:27;37.60;54.60
212;DHT22;16228;48.800;9.002;2023-07-13T12:11:57;37.00;55.70
212;DHT22;16228;48.800;9.002;2023-07-13T12:14:25;35.70;53.10
212;DHT22;16228;48.800;9.002;2023-07-13T12:16:53;36.00;57.40
212;DHT22;16228;48.800;9.002;2023-07-13T12:19:22;35.80;55.60
212;DHT22;16228;48.800;9.002;2023-07-13T12:21:52;34.80;55.60
212;DHT22;16228;48.800;9.002;2023-07-13T12:24:21;33.70;58.40
212;DHT22;16228;48.800;9.002;2023-07-13T12:26:53;33.30;57.60
212;DHT22;16228;48.800;9.002;2023-07-13T12:29:22;32.90;58.60
212;DHT22;16228;48.800;9.002;2023-07-13T12:31:50;33.50;61.30
212;DHT22;16228;48.800;9.002;2023-07-13T12:34:19;34.60;55.70
212;DHT22;16228;48.800;9.002;2023-07-13T12:36:48;35.20;55.70
212;DHT22;16228;48.800;9.002;2023-07-13T12:39:19;35.50;54.20
212;DHT22;16228;48.800;9.002;2023-07-13T12:41:47;34.90;53.50
212;DHT22;16228;48.800;9.002;2023-07-13T12:44:17;33.60;58.30
212;DHT22;16228;48.800;9.002;2023-07-13T12:46:56;32.10;58.70
212;DHT22;16228;48.800;9.002;2023-07-13T12:49:27;30.90;60.80
212;DHT22;16228;48.800;9.002;2023-07-13T12:51:58;30.30;64.40
212;DHT22;16228;48.800;9.002;2023-07-13T12:54:27;31.10;62.10
212;DHT22;16228;48.800;9.002;2023-07-13T12:56:55;31.60;63.90
212;DHT22;16228;48.800;9.002;2023-07-13T12:59:28;32.60;58.20
212;DHT22;16228;48.800;9.002;2023-07-13T13:02:00;33.50;56.80
212;DHT22;16228;48.800;9.002;2023-07-13T13:04:28;33.50;55.00
212;DHT22;16228;48.800;9.002;2023-07-13T13:07:03;34.00;58.10
212;DHT22;16228;48.800;9.002;2023-07-13T13:09:30;34.70;57.50
212;DHT22;16228;48.800;9.002;2023-07-13T13:11:58;35.60;54.00
212;DHT22;16228;48.800;9.002;2023-07-13T13:14:25;36.30;51.70
212;DHT22;16228;48.800;9.002;2023-07-13T13:16:52;36.70;53.50
212;DHT22;16228;48.800;9.002;2023-07-13T13:19:24;37.00;54.10
212;DHT22;16228;48.800;9.002;2023-07-13T13:21:52;36.80;54.80
212;DHT22;16228;48.800;9.002;2023-07-13T13:24:22;36.90;55.00
212;DHT22;16228;48.800;9.002;2023-07-13T13:26:51;36.80;51.30
212;DHT22;16228;48.800;9.002;2023-07-13T13:29:21;36.90;52.00
212;DHT22;16228;48.800;9.002;2023-07-13T13:31:50;37.10;50.60
212;DHT22;16228;48.800;9.002;2023-07-13T13:34:18;36.90;52.00
212;DHT22;16228;48.800;9.002;2023-07-13T13:36:47;36.70;51.80
212;DHT22;16228;48.800;9.002;2023-07-13T13:39:20;36.20;53.40
212;DHT22;16228;48.800;9.002;2023-07-13T13:41:49;35.80;54.00
212;DHT22;16228;48.800;9.002;2023-07-13T13:44:18;35.80;56.80
212;DHT22;16228;48.800;9.002;2023-07-13T13:46:47;35.50;54.60
212;DHT22;16228;48.800;9.002;2023-07-13T13:49:15;35.20;53.90
212;DHT22;16228;48.800;9.002;2023-07-13T13:51:44;34.70;57.40
212;DHT22;16228;48.800;9.002;2023-07-13T13:54:14;33.70;54.70
212;DHT22;16228;48.800;9.002;2023-07-13T13:56:42;33.00;58.20
212;DHT22;16228;48.800;9.002;2023-07-13T13:59:09;32.20;59.00
212;DHT22;16228;48.800;9.002;2023-07-13T14:01:37;31.20;61.60
212;DHT22;16228;48.800;9.002;2023-07-13T14:04:06;30.80;63.70
212;DHT22;16228;48.800;9.002;2023-07-13T14:06:34;30.30;64.60
212;DHT22;16228;48.800;9.002;2023-07-13T14:09:01;30.00;63.60
212;DHT22;16228;48.800;9.002;2023-07-13T14:11:31;29.90;65.50
212;DHT22;16228;48.800;9.002;2023-07-13T14:14:00;29.60;65.00
212;DHT22;16228;48.800;9.002;2023-07-13T14:16:30;29.30;65.70
212;DHT22;16228;48.800;9.002;2023-07-13T14:18:58;29.10;66.60
212;DHT22;16228;48.800;9.002;2023-07-13T14:21:27;29.00;64.80
212;DHT22;16228;48.800;9.002;2023-07-13T14:23:55;28.90;69.40
212;DHT22;16228;48.800;9.002;2023-07-13T14:26:25;28.70;65.50
212;DHT22;16228;48.800;9.002;2023-07-13T14:28:55;28.80;70.20
212;DHT22;16228;48.800;9.002;2023-07-13T14:31:26;28.90;66.90
212;DHT22;16228;48.800;9.002;2023-07-13T14:33:54;28.70;65.50
212;DHT22;16228;48.800;9.002;2023-07-13T14:36:28;28.60;68.70
212;DHT22;16228;48.800;9.002;2023-07-13T14:38:56;28.60;67.50
212;DHT22;16228;48.800;9.002;2023-07-13T14:41:23;28.50;66.90
212;DHT22;16228;48.800;9.002;2023-07-13T14:43:50;28.40;69.50
212;DHT22;16228;48.800;9.002;2023-07-13T14:46:27;28.30;67.00
212;DHT22;16228;48.800;9.002;2023-07-13T14:49:01;28.30;69.40
212;DHT22;16228;48.800;9.002;2023-07-13T14:51:29;28.00;67.10
212;DHT22;16228;48.800;9.002;2023-07-13T14:54:00;28.00;69.00
212;DHT22;16228;48.800;9.002;2023-07-13T14:56:27;27.80;66.80
212;DHT22;16228;48.800;9.002;2023-07-13T14:58:54;27.60;65.70
212;DHT22;16228;48.800;9.002;2023-07-13T15:01:23;27.50;68.10
212;DHT22;16228;48.800;9.002;2023-07-13T15:03:51;27.40;66.70
212;DHT22;16228;48.800;9.002;2023-07-13T15:06:19;27.30;68.00
212;DHT22;16228;48.800;9.002;2023-07-13T15:08:47;27.20;68.60
212;DHT22;16228;48.800;9.002;2023-07-13T15:11:16;27.10;69.30
212;DHT22;16228;48.800;9.002;2023-07-13T15:13:43;26.90;68.80
212;DHT22;16228;48.800;9.002;2023-07-13T15:16:15;26.80;69.90
212;DHT22;16228;48.800;9.002;2023-07-13T15:18:46;26.70;70.10
212;DHT22;16228;48.800;9.002;2023-07-13T15:21:17;26.60;68.60
212;DHT22;16228;48.800;9.002;2023-07-13T15:23:46;26.50;70.20
212;DHT22;16228;48.800;9.002;2023-07-13T15:26:13;26.50;71.50
212;DHT22;16228;48.800;9.002;2023-07-13T15:28:42;26.50;72.40
212;DHT22;16228;48.800;9.002;2023-07-13T15:31:19;26.40;69.90
212;DHT22;16228;48.800;9.002;2023-07-13T15:33:48;26.40;68.60
212;DHT22;16228;48.800;9.002;2023-07-13T15:36:16;26.50;69.30
212;DHT22;16228;48.800;9.002;2023-07-13T15:38:44;26.50;67.30
212;DHT22;16228;48.800;9.002;2023-07-13T15:41:17;26.50;68.40
212;DHT22;16228;48.800;9.002;2023-07-13T15:43:49;26.40;68.10
212;DHT22;16228;48.800;9.002;2023-07-13T15:46:17;26.20;67.90
212;DHT22;16228;48.800;9.002;2023-07-13T15:48:47;26.00;67.90
212;DHT22;16228;48.800;9.002;2023-07-13T15:51:20;25.80;69.80
212;DHT22;16228;48.800;9.002;2023-07-13T15:53:49;25.80;70.30
212;DHT22;16228;48.800;9.002;2023-07-13T15:56:20;25.80;69.70
212;DHT22;16228;48.800;9.002;2023-07-13T15:58:48;25.70;69.90
212;DHT22;16228;48.800;9.002;2023-07-13T16:01:15;25.80;69.80
212;DHT22;16228;48.800;9.002;2023-07-13T16:03:43;25.80;69.90
212;DHT22;16228;48.800;9.002;2023-07-13T16:06:17;25.80;71.10
212;DHT22;16228;48.800;9.002;2023-07-13T16:08:47;25.70;70.60
212;DHT22;16228;48.800;9.002;2023-07-13T16:11:20;25.70;69.10
212;DHT22;16228;48.800;9.002;2023-07-13T16:13:48;25.60;70.70
212;DHT22;16228;48.800;9.002;2023-07-13T16:16:22;25.60;74.40
212;DHT22;16228;48.800;9.002;2023-07-13T16:18:51;25.60;70.10
212;DHT22;16228;48.800;9.002;2023-07-13T16:21:22;25.60;72.70
212;DHT22;16228;48.800;9.002;2023-07-13T16:23:50;25.50;70.60